Burt, Michigan
Current Conditions -  °F | °C
As of 2:54 PM on Tuesday 21 Oct 2014 (Local Time) from KHYX Reporting Station
Overcast Overcast  
Wind Chill: 42°   Ceiling: 2700
Heat Index: 46°   Visibility: 10mi
Dew Point: 36°   Wind: 9mph
Humidity: 66%   Direction: 10°N
Pressure: 30.12"   Gusts: NA
Location:  43.24°N, 83.91°W
Report Text: KHYX 211854Z AUTO 01008KT 10SM OVC027 08/02 A3012 RMK AO2
Loading
Personal Weather Stations






























Interactive Weather Map
Tropical Storm Tracking
New forecast layout! Learn more

10-Day Weather Forecast

Advertisements
Track Severe Weather on mobile